sensor_id;sensor_type;location;lat;lon;timestamp;P1;durP1;ratioP1;P2;durP2;ratioP2
20482;SDS011;10400;53.198;6.592;2022-07-23T00:00:49;3.60;;;1.92;;
20482;SDS011;10400;53.198;6.592;2022-07-23T00:03:15;6.53;;;2.08;;
20482;SDS011;10400;53.198;6.592;2022-07-23T00:05:40;5.50;;;2.35;;
20482;SDS011;10400;53.198;6.592;2022-07-23T00:08:07;4.93;;;2.10;;
20482;SDS011;10400;53.198;6.592;2022-07-23T00:10:33;5.35;;;2.20;;
20482;SDS011;10400;53.198;6.592;2022-07-23T00:12:59;4.13;;;2.20;;
20482;SDS011;10400;53.198;6.592;2022-07-23T00:15:24;7.25;;;2.25;;
20482;SDS011;10400;53.198;6.592;2022-07-23T00:17:50;5.25;;;2.20;;
20482;SDS011;10400;53.198;6.592;2022-07-23T00:20:16;6.57;;;2.30;;
20482;SDS011;10400;53.198;6.592;2022-07-23T00:22:52;10.38;;;2.47;;
20482;SDS011;10400;53.198;6.592;2022-07-23T00:25:19;7.75;;;2.78;;
20482;SDS011;10400;53.198;6.592;2022-07-23T00:27:46;6.95;;;2.20;;
20482;SDS011;10400;53.198;6.592;2022-07-23T00:30:11;5.55;;;2.75;;
20482;SDS011;10400;53.198;6.592;2022-07-23T00:32:57;5.10;;;2.90;;
20482;SDS011;10400;53.198;6.592;2022-07-23T00:35:25;4.00;;;2.83;;
20482;SDS011;10400;53.198;6.592;2022-07-23T00:37:51;8.57;;;2.60;;
20482;SDS011;10400;53.198;6.592;2022-07-23T00:40:17;5.13;;;3.00;;
20482;SDS011;10400;53.198;6.592;2022-07-23T00:42:43;8.63;;;3.72;;
20482;SDS011;10400;53.198;6.592;2022-07-23T00:45:10;11.50;;;3.45;;
20482;SDS011;10400;53.198;6.592;2022-07-23T00:47:35;6.90;;;3.45;;
20482;SDS011;10400;53.198;6.592;2022-07-23T00:50:05;4.05;;;3.17;;
20482;SDS011;10400;53.198;6.592;2022-07-23T00:52:33;9.13;;;3.40;;
20482;SDS011;10400;53.198;6.592;2022-07-23T00:55:00;7.00;;;3.25;;
20482;SDS011;10400;53.198;6.592;2022-07-23T00:57:26;5.88;;;3.35;;
20482;SDS011;10400;53.198;6.592;2022-07-23T00:59:52;6.95;;;3.20;;
20482;SDS011;10400;53.198;6.592;2022-07-23T01:02:17;7.38;;;3.47;;
20482;SDS011;10400;53.198;6.592;2022-07-23T01:04:43;6.57;;;3.22;;
20482;SDS011;10400;53.198;6.592;2022-07-23T01:07:09;6.38;;;3.42;;
20482;SDS011;10400;53.198;6.592;2022-07-23T01:09:34;6.50;;;3.15;;
20482;SDS011;10400;53.198;6.592;2022-07-23T01:12:01;8.73;;;3.15;;
20482;SDS011;10400;53.198;6.592;2022-07-23T01:14:27;9.10;;;3.30;;
20482;SDS011;10400;53.198;6.592;2022-07-23T01:16:53;5.53;;;3.08;;
20482;SDS011;10400;53.198;6.592;2022-07-23T01:19:18;6.40;;;2.97;;
20482;SDS011;10400;53.198;6.592;2022-07-23T01:21:45;6.82;;;3.25;;
20482;SDS011;10400;53.198;6.592;2022-07-23T01:24:12;7.68;;;2.97;;
20482;SDS011;10400;53.198;6.592;2022-07-23T01:26:40;5.30;;;2.70;;
20482;SDS011;10400;53.198;6.592;2022-07-23T01:29:09;7.25;;;2.78;;
20482;SDS011;10400;53.198;6.592;2022-07-23T01:31:36;7.30;;;2.72;;
20482;SDS011;10400;53.198;6.592;2022-07-23T01:34:02;8.20;;;3.10;;
20482;SDS011;10400;53.198;6.592;2022-07-23T01:36:28;5.72;;;3.38;;
20482;SDS011;10400;53.198;6.592;2022-07-23T01:38:54;7.72;;;2.75;;
20482;SDS011;10400;53.198;6.592;2022-07-23T01:41:19;10.02;;;3.30;;
20482;SDS011;10400;53.198;6.592;2022-07-23T01:43:45;6.43;;;2.60;;
20482;SDS011;10400;53.198;6.592;2022-07-23T01:46:11;5.22;;;2.65;;
20482;SDS011;10400;53.198;6.592;2022-07-23T01:48:37;3.80;;;2.78;;
20482;SDS011;10400;53.198;6.592;2022-07-23T01:51:03;7.32;;;3.20;;
20482;SDS011;10400;53.198;6.592;2022-07-23T01:53:28;5.15;;;2.40;;
20482;SDS011;10400;53.198;6.592;2022-07-23T01:55:56;5.57;;;2.80;;
20482;SDS011;10400;53.198;6.592;2022-07-23T01:58:22;4.80;;;2.80;;
20482;SDS011;10400;53.198;6.592;2022-07-23T02:00:48;7.65;;;2.88;;
20482;SDS011;10400;53.198;6.592;2022-07-23T02:03:13;5.72;;;2.53;;
20482;SDS011;10400;53.198;6.592;2022-07-23T02:05:39;3.40;;;2.70;;
20482;SDS011;10400;53.198;6.592;2022-07-23T02:08:04;5.75;;;2.65;;
20482;SDS011;10400;53.198;6.592;2022-07-23T02:10:30;6.93;;;2.97;;
20482;SDS011;10400;53.198;6.592;2022-07-23T02:12:56;6.35;;;3.10;;
20482;SDS011;10400;53.198;6.592;2022-07-23T02:15:21;6.22;;;3.40;;
20482;SDS011;10400;53.198;6.592;2022-07-23T02:17:47;7.55;;;3.28;;
20482;SDS011;10400;53.198;6.592;2022-07-23T02:20:13;5.85;;;3.33;;
20482;SDS011;10400;53.198;6.592;2022-07-23T02:22:39;5.95;;;4.00;;
20482;SDS011;10400;53.198;6.592;2022-07-23T02:25:05;9.05;;;4.15;;
20482;SDS011;10400;53.198;6.592;2022-07-23T02:27:31;6.25;;;3.75;;
20482;SDS011;10400;53.198;6.592;2022-07-23T02:29:57;6.65;;;4.30;;
20482;SDS011;10400;53.198;6.592;2022-07-23T02:32:23;4.63;;;3.42;;
20482;SDS011;10400;53.198;6.592;2022-07-23T02:34:49;5.78;;;3.72;;
20482;SDS011;10400;53.198;6.592;2022-07-23T02:37:15;6.75;;;4.03;;
20482;SDS011;10400;53.198;6.592;2022-07-23T02:39:40;7.43;;;3.97;;
20482;SDS011;10400;53.198;6.592;2022-07-23T02:42:06;10.13;;;4.30;;
20482;SDS011;10400;53.198;6.592;2022-07-23T02:44:32;8.57;;;4.45;;
20482;SDS011;10400;53.198;6.592;2022-07-23T02:46:57;8.60;;;4.63;;
20482;SDS011;10400;53.198;6.592;2022-07-23T02:49:23;7.80;;;4.50;;
20482;SDS011;10400;53.198;6.592;2022-07-23T02:51:49;8.85;;;4.65;;
20482;SDS011;10400;53.198;6.592;2022-07-23T02:54:14;9.68;;;4.22;;
20482;SDS011;10400;53.198;6.592;2022-07-23T02:56:40;11.10;;;4.85;;
20482;SDS011;10400;53.198;6.592;2022-07-23T02:59:06;8.48;;;4.60;;
20482;SDS011;10400;53.198;6.592;2022-07-23T03:01:32;10.52;;;4.45;;
20482;SDS011;10400;53.198;6.592;2022-07-23T03:03:58;9.63;;;4.00;;
20482;SDS011;10400;53.198;6.592;2022-07-23T03:06:23;9.07;;;4.13;;
20482;SDS011;10400;53.198;6.592;2022-07-23T03:08:49;5.32;;;3.63;;
20482;SDS011;10400;53.198;6.592;2022-07-23T03:11:14;5.13;;;3.80;;
20482;SDS011;10400;53.198;6.592;2022-07-23T03:13:40;10.25;;;4.30;;
20482;SDS011;10400;53.198;6.592;2022-07-23T03:16:06;5.22;;;4.03;;
20482;SDS011;10400;53.198;6.592;2022-07-23T03:18:32;9.10;;;4.13;;
20482;SDS011;10400;53.198;6.592;2022-07-23T03:20:58;5.68;;;3.67;;
20482;SDS011;10400;53.198;6.592;2022-07-23T03:23:24;4.07;;;3.50;;
20482;SDS011;10400;53.198;6.592;2022-07-23T03:25:50;8.50;;;3.80;;
20482;SDS011;10400;53.198;6.592;2022-07-23T03:28:16;6.80;;;4.10;;
20482;SDS011;10400;53.198;6.592;2022-07-23T03:30:42;8.50;;;4.63;;
20482;SDS011;10400;53.198;6.592;2022-07-23T03:33:11;7.15;;;3.72;;
20482;SDS011;10400;53.198;6.592;2022-07-23T03:35:37;6.07;;;4.00;;
20482;SDS011;10400;53.198;6.592;2022-07-23T03:38:03;6.40;;;3.63;;
20482;SDS011;10400;53.198;6.592;2022-07-23T03:40:28;6.50;;;4.47;;
20482;SDS011;10400;53.198;6.592;2022-07-23T03:42:54;6.97;;;4.32;;
20482;SDS011;10400;53.198;6.592;2022-07-23T03:45:19;8.80;;;4.00;;
20482;SDS011;10400;53.198;6.592;2022-07-23T03:47:45;14.07;;;4.50;;
20482;SDS011;10400;53.198;6.592;2022-07-23T03:50:11;6.80;;;3.55;;
20482;SDS011;10400;53.198;6.592;2022-07-23T03:52:36;6.82;;;3.90;;
20482;SDS011;10400;53.198;6.592;2022-07-23T03:55:02;5.63;;;3.50;;
20482;SDS011;10400;53.198;6.592;2022-07-23T03:57:29;7.75;;;3.88;;
20482;SDS011;10400;53.198;6.592;2022-07-23T03:59:55;7.45;;;3.55;;
20482;SDS011;10400;53.198;6.592;2022-07-23T04:02:20;6.65;;;3.80;;
20482;SDS011;10400;53.198;6.592;2022-07-23T04:04:46;8.73;;;3.90;;
20482;SDS011;10400;53.198;6.592;2022-07-23T04:07:12;7.63;;;3.65;;
20482;SDS011;10400;53.198;6.592;2022-07-23T04:09:38;4.47;;;3.45;;
20482;SDS011;10400;53.198;6.592;2022-07-23T04:12:05;5.88;;;2.95;;
20482;SDS011;10400;53.198;6.592;2022-07-23T04:14:31;7.25;;;3.55;;
20482;SDS011;10400;53.198;6.592;2022-07-23T04:16:57;5.38;;;3.50;;
20482;SDS011;10400;53.198;6.592;2022-07-23T04:19:23;4.68;;;3.55;;
20482;SDS011;10400;53.198;6.592;2022-07-23T04:21:49;5.05;;;3.25;;
20482;SDS011;10400;53.198;6.592;2022-07-23T04:24:15;7.85;;;3.28;;
20482;SDS011;10400;53.198;6.592;2022-07-23T04:26:41;6.82;;;3.22;;
20482;SDS011;10400;53.198;6.592;2022-07-23T04:29:06;9.48;;;3.97;;
20482;SDS011;10400;53.198;6.592;2022-07-23T04:31:32;6.97;;;3.60;;
20482;SDS011;10400;53.198;6.592;2022-07-23T04:33:58;4.07;;;2.80;;
20482;SDS011;10400;53.198;6.592;2022-07-23T04:36:23;4.18;;;3.28;;
20482;SDS011;10400;53.198;6.592;2022-07-23T04:38:49;4.57;;;3.35;;
20482;SDS011;10400;53.198;6.592;2022-07-23T04:41:14;9.82;;;3.58;;
20482;SDS011;10400;53.198;6.592;2022-07-23T04:43:40;6.47;;;3.47;;
20482;SDS011;10400;53.198;6.592;2022-07-23T04:46:05;8.68;;;3.13;;
20482;SDS011;10400;53.198;6.592;2022-07-23T04:48:31;6.15;;;2.85;;
20482;SDS011;10400;53.198;6.592;2022-07-23T04:50:57;5.30;;;3.00;;
20482;SDS011;10400;53.198;6.592;2022-07-23T04:53:22;7.30;;;4.38;;
20482;SDS011;10400;53.198;6.592;2022-07-23T04:55:48;9.75;;;3.65;;
20482;SDS011;10400;53.198;6.592;2022-07-23T04:58:14;6.90;;;3.20;;
20482;SDS011;10400;53.198;6.592;2022-07-23T05:00:40;7.70;;;3.45;;
20482;SDS011;10400;53.198;6.592;2022-07-23T05:03:05;5.65;;;3.03;;
20482;SDS011;10400;53.198;6.592;2022-07-23T05:05:31;5.50;;;3.03;;
20482;SDS011;10400;53.198;6.592;2022-07-23T05:07:57;9.60;;;3.30;;
20482;SDS011;10400;53.198;6.592;2022-07-23T05:10:22;9.27;;;2.90;;
20482;SDS011;10400;53.198;6.592;2022-07-23T05:12:48;4.72;;;2.70;;
20482;SDS011;10400;53.198;6.592;2022-07-23T05:15:14;7.97;;;3.05;;
20482;SDS011;10400;53.198;6.592;2022-07-23T05:17:39;3.50;;;2.58;;
20482;SDS011;10400;53.198;6.592;2022-07-23T05:20:05;5.13;;;2.63;;
20482;SDS011;10400;53.198;6.592;2022-07-23T05:22:31;9.10;;;2.88;;
20482;SDS011;10400;53.198;6.592;2022-07-23T05:24:58;9.88;;;2.88;;
20482;SDS011;10400;53.198;6.592;2022-07-23T05:27:23;6.03;;;2.15;;
20482;SDS011;10400;53.198;6.592;2022-07-23T05:29:49;6.55;;;2.78;;
20482;SDS011;10400;53.198;6.592;2022-07-23T05:32:15;5.22;;;2.53;;
20482;SDS011;10400;53.198;6.592;2022-07-23T05:34:40;6.00;;;3.10;;
20482;SDS011;10400;53.198;6.592;2022-07-23T05:37:06;4.88;;;2.42;;
20482;SDS011;10400;53.198;6.592;2022-07-23T05:39:32;8.02;;;2.55;;
20482;SDS011;10400;53.198;6.592;2022-07-23T05:41:57;4.57;;;2.42;;
20482;SDS011;10400;53.198;6.592;2022-07-23T05:44:23;3.30;;;2.00;;
20482;SDS011;10400;53.198;6.592;2022-07-23T05:46:49;6.15;;;2.30;;
20482;SDS011;10400;53.198;6.592;2022-07-23T05:49:14;6.90;;;2.22;;
20482;SDS011;10400;53.198;6.592;2022-07-23T05:51:40;3.20;;;2.25;;
20482;SDS011;10400;53.198;6.592;2022-07-23T05:54:05;8.18;;;2.58;;
20482;SDS011;10400;53.198;6.592;2022-07-23T05:56:31;5.85;;;2.40;;
20482;SDS011;10400;53.198;6.592;2022-07-23T05:58:56;5.53;;;2.33;;
20482;SDS011;10400;53.198;6.592;2022-07-23T06:01:22;5.00;;;2.20;;
20482;SDS011;10400;53.198;6.592;2022-07-23T06:03:48;4.25;;;2.33;;
20482;SDS011;10400;53.198;6.592;2022-07-23T06:06:13;3.10;;;2.03;;
20482;SDS011;10400;53.198;6.592;2022-07-23T06:08:39;2.78;;;1.90;;
20482;SDS011;10400;53.198;6.592;2022-07-23T06:11:05;3.70;;;1.90;;
20482;SDS011;10400;53.198;6.592;2022-07-23T06:13:30;4.38;;;2.22;;
20482;SDS011;10400;53.198;6.592;2022-07-23T06:15:56;6.50;;;1.70;;
20482;SDS011;10400;53.198;6.592;2022-07-23T06:18:22;3.65;;;1.67;;
20482;SDS011;10400;53.198;6.592;2022-07-23T06:20:47;3.05;;;1.60;;
20482;SDS011;10400;53.198;6.592;2022-07-23T06:23:13;6.25;;;2.03;;
20482;SDS011;10400;53.198;6.592;2022-07-23T06:25:38;7.22;;;1.67;;
20482;SDS011;10400;53.198;6.592;2022-07-23T06:28:04;8.68;;;1.80;;
20482;SDS011;10400;53.198;6.592;2022-07-23T06:30:30;5.22;;;2.03;;
20482;SDS011;10400;53.198;6.592;2022-07-23T06:32:56;3.53;;;2.03;;
20482;SDS011;10400;53.198;6.592;2022-07-23T06:35:22;5.30;;;2.10;;
20482;SDS011;10400;53.198;6.592;2022-07-23T06:37:47;3.47;;;2.00;;
20482;SDS011;10400;53.198;6.592;2022-07-23T06:40:13;2.63;;;1.58;;
20482;SDS011;10400;53.198;6.592;2022-07-23T06:42:39;3.08;;;1.95;;
20482;SDS011;10400;53.198;6.592;2022-07-23T06:45:05;3.42;;;1.90;;
20482;SDS011;10400;53.198;6.592;2022-07-23T06:47:31;4.10;;;1.77;;
20482;SDS011;10400;53.198;6.592;2022-07-23T06:49:57;5.15;;;1.90;;
20482;SDS011;10400;53.198;6.592;2022-07-23T06:52:23;4.05;;;1.92;;
20482;SDS011;10400;53.198;6.592;2022-07-23T06:54:49;2.67;;;1.50;;
20482;SDS011;10400;53.198;6.592;2022-07-23T06:57:14;2.70;;;1.67;;
20482;SDS011;10400;53.198;6.592;2022-07-23T06:59:40;2.78;;;1.70;;
20482;SDS011;10400;53.198;6.592;2022-07-23T07:02:06;6.15;;;2.10;;
20482;SDS011;10400;53.198;6.592;2022-07-23T07:04:32;5.20;;;1.75;;
20482;SDS011;10400;53.198;6.592;2022-07-23T07:06:58;3.95;;;2.05;;
20482;SDS011;10400;53.198;6.592;2022-07-23T07:09:24;7.25;;;1.70;;
20482;SDS011;10400;53.198;6.592;2022-07-23T07:11:49;1.70;;;1.17;;
20482;SDS011;10400;53.198;6.592;2022-07-23T07:14:15;5.47;;;1.40;;
20482;SDS011;10400;53.198;6.592;2022-07-23T07:16:41;2.17;;;1.30;;
20482;SDS011;10400;53.198;6.592;2022-07-23T07:19:06;2.75;;;1.25;;
20482;SDS011;10400;53.198;6.592;2022-07-23T07:21:32;2.42;;;1.27;;
20482;SDS011;10400;53.198;6.592;2022-07-23T07:23:58;2.90;;;0.98;;
20482;SDS011;10400;53.198;6.592;2022-07-23T07:26:23;1.63;;;0.90;;
20482;SDS011;10400;53.198;6.592;2022-07-23T07:28:49;2.38;;;0.80;;
20482;SDS011;10400;53.198;6.592;2022-07-23T07:31:15;1.65;;;0.52;;
20482;SDS011;10400;53.198;6.592;2022-07-23T07:33:40;1.80;;;0.77;;
20482;SDS011;10400;53.198;6.592;2022-07-23T07:36:06;3.15;;;0.63;;
20482;SDS011;10400;53.198;6.592;2022-07-23T07:38:32;3.13;;;0.65;;
20482;SDS011;10400;53.198;6.592;2022-07-23T07:40:57;2.75;;;0.68;;
20482;SDS011;10400;53.198;6.592;2022-07-23T07:43:23;1.17;;;0.50;;
20482;SDS011;10400;53.198;6.592;2022-07-23T07:45:48;2.78;;;0.52;;
20482;SDS011;10400;53.198;6.592;2022-07-23T07:48:14;1.63;;;0.47;;
20482;SDS011;10400;53.198;6.592;2022-07-23T07:50:40;3.88;;;0.50;;
20482;SDS011;10400;53.198;6.592;2022-07-23T07:53:05;2.83;;;0.60;;
20482;SDS011;10400;53.198;6.592;2022-07-23T07:55:31;1.58;;;0.50;;
20482;SDS011;10400;53.198;6.592;2022-07-23T07:57:57;1.70;;;0.50;;
20482;SDS011;10400;53.198;6.592;2022-07-23T08:00:23;4.72;;;0.75;;
20482;SDS011;10400;53.198;6.592;2022-07-23T08:02:50;1.95;;;0.40;;
20482;SDS011;10400;53.198;6.592;2022-07-23T08:05:20;0.73;;;0.47;;
20482;SDS011;10400;53.198;6.592;2022-07-23T08:07:50;1.15;;;0.50;;
20482;SDS011;10400;53.198;6.592;2022-07-23T08:10:16;5.80;;;0.43;;
20482;SDS011;10400;53.198;6.592;2022-07-23T08:12:44;1.63;;;0.57;;
20482;SDS011;10400;53.198;6.592;2022-07-23T08:15:12;2.42;;;0.52;;
20482;SDS011;10400;53.198;6.592;2022-07-23T08:17:39;0.93;;;0.47;;
20482;SDS011;10400;53.198;6.592;2022-07-23T08:20:06;2.63;;;0.70;;
20482;SDS011;10400;53.198;6.592;2022-07-23T08:22:52;1.13;;;0.70;;
20482;SDS011;10400;53.198;6.592;2022-07-23T08:25:26;1.55;;;0.60;;
20482;SDS011;10400;53.198;6.592;2022-07-23T08:27:55;0.55;;;0.50;;
20482;SDS011;10400;53.198;6.592;2022-07-23T08:30:22;0.40;;;0.40;;
20482;SDS011;10400;53.198;6.592;2022-07-23T08:32:49;1.00;;;0.45;;
20482;SDS011;10400;53.198;6.592;2022-07-23T08:35:22;0.38;;;0.38;;
20482;SDS011;10400;53.198;6.592;2022-07-23T08:37:59;4.68;;;0.70;;
20482;SDS011;10400;53.198;6.592;2022-07-23T08:40:27;1.33;;;0.47;;
20482;SDS011;10400;53.198;6.592;2022-07-23T08:42:54;0.95;;;0.73;;
20482;SDS011;10400;53.198;6.592;2022-07-23T08:45:21;1.55;;;0.60;;
20482;SDS011;10400;53.198;6.592;2022-07-23T08:47:52;1.70;;;0.70;;
20482;SDS011;10400;53.198;6.592;2022-07-23T08:50:20;1.38;;;0.40;;
20482;SDS011;10400;53.198;6.592;2022-07-23T08:52:46;2.58;;;0.65;;
20482;SDS011;10400;53.198;6.592;2022-07-23T08:55:15;1.98;;;0.57;;
20482;SDS011;10400;53.198;6.592;2022-07-23T08:57:42;4.22;;;0.73;;
20482;SDS011;10400;53.198;6.592;2022-07-23T09:00:09;1.75;;;0.68;;
20482;SDS011;10400;53.198;6.592;2022-07-23T09:02:38;1.38;;;0.40;;
20482;SDS011;10400;53.198;6.592;2022-07-23T09:05:08;4.55;;;1.10;;
20482;SDS011;10400;53.198;6.592;2022-07-23T09:07:36;3.33;;;0.80;;
20482;SDS011;10400;53.198;6.592;2022-07-23T09:10:07;1.60;;;0.60;;
20482;SDS011;10400;53.198;6.592;2022-07-23T09:12:34;2.03;;;0.50;;
20482;SDS011;10400;53.198;6.592;2022-07-23T09:15:04;2.33;;;0.65;;
20482;SDS011;10400;53.198;6.592;2022-07-23T09:17:36;4.50;;;0.60;;
20482;SDS011;10400;53.198;6.592;2022-07-23T09:20:07;1.52;;;0.55;;
20482;SDS011;10400;53.198;6.592;2022-07-23T09:22:37;1.52;;;0.40;;
20482;SDS011;10400;53.198;6.592;2022-07-23T09:25:13;1.50;;;0.45;;
20482;SDS011;10400;53.198;6.592;2022-07-23T09:30:14;3.45;;;0.50;;
20482;SDS011;10400;53.198;6.592;2022-07-23T09:32:39;1.48;;;0.50;;
20482;SDS011;10400;53.198;6.592;2022-07-23T09:35:06;1.67;;;0.60;;
20482;SDS011;10400;53.198;6.592;2022-07-23T09:37:32;2.95;;;0.80;;
20482;SDS011;10400;53.198;6.592;2022-07-23T09:40:07;2.58;;;0.60;;
20482;SDS011;10400;53.198;6.592;2022-07-23T09:42:36;2.88;;;0.50;;
20482;SDS011;10400;53.198;6.592;2022-07-23T09:45:02;1.08;;;0.57;;
20482;SDS011;10400;53.198;6.592;2022-07-23T09:47:30;4.47;;;0.65;;
20482;SDS011;10400;53.198;6.592;2022-07-23T09:49:57;3.15;;;0.70;;
20482;SDS011;10400;53.198;6.592;2022-07-23T09:52:26;2.38;;;0.75;;
20482;SDS011;10400;53.198;6.592;2022-07-23T09:54:57;5.25;;;0.70;;
20482;SDS011;10400;53.198;6.592;2022-07-23T09:57:25;2.15;;;0.60;;
20482;SDS011;10400;53.198;6.592;2022-07-23T09:59:52;2.53;;;0.80;;
20482;SDS011;10400;53.198;6.592;2022-07-23T10:02:18;2.72;;;0.75;;
20482;SDS011;10400;53.198;6.592;2022-07-23T10:04:44;2.67;;;0.63;;
20482;SDS011;10400;53.198;6.592;2022-07-23T10:07:11;3.13;;;0.60;;
20482;SDS011;10400;53.198;6.592;2022-07-23T10:09:39;2.90;;;0.68;;
20482;SDS011;10400;53.198;6.592;2022-07-23T10:12:12;2.88;;;0.60;;
20482;SDS011;10400;53.198;6.592;2022-07-23T10:14:58;3.80;;;0.73;;
20482;SDS011;10400;53.198;6.592;2022-07-23T10:17:24;3.50;;;0.68;;
20482;SDS011;10400;53.198;6.592;2022-07-23T10:19:50;3.72;;;0.88;;
20482;SDS011;10400;53.198;6.592;2022-07-23T10:22:20;1.38;;;0.77;;
20482;SDS011;10400;53.198;6.592;2022-07-23T10:28:16;5.72;;;1.10;;
20482;SDS011;10400;53.198;6.592;2022-07-23T10:33:44;1.63;;;0.73;;
20482;SDS011;10400;53.198;6.592;2022-07-23T10:39:15;2.65;;;1.02;;
20482;SDS011;10400;53.198;6.592;2022-07-23T10:41:47;5.00;;;0.90;;
20482;SDS011;10400;53.198;6.592;2022-07-23T10:49:27;2.28;;;0.80;;
20482;SDS011;10400;53.198;6.592;2022-07-23T10:57:16;1.80;;;0.80;;
20482;SDS011;10400;53.198;6.592;2022-07-23T11:02:43;4.05;;;0.88;;
20482;SDS011;10400;53.198;6.592;2022-07-23T11:05:12;3.97;;;1.00;;
20482;SDS011;10400;53.198;6.592;2022-07-23T11:16:11;4.22;;;0.80;;
20482;SDS011;10400;53.198;6.592;2022-07-23T11:37:04;7.25;;;1.20;;
20482;SDS011;10400;53.198;6.592;2022-07-23T11:39:32;4.63;;;0.82;;
20482;SDS011;10400;53.198;6.592;2022-07-23T11:41:59;2.08;;;0.88;;
20482;SDS011;10400;53.198;6.592;2022-07-23T11:49:25;3.42;;;1.10;;
20482;SDS011;10400;53.198;6.592;2022-07-23T11:57:16;2.88;;;1.00;;
20482;SDS011;10400;53.198;6.592;2022-07-23T11:59:42;1.80;;;0.80;;
20482;SDS011;10400;53.198;6.592;2022-07-23T12:02:10;3.60;;;1.25;;
20482;SDS011;10400;53.198;6.592;2022-07-23T12:04:37;2.78;;;1.30;;
20482;SDS011;10400;53.198;6.592;2022-07-23T12:12:38;4.38;;;1.25;;
20482;SDS011;10400;53.198;6.592;2022-07-23T12:15:06;3.60;;;1.30;;
20482;SDS011;10400;53.198;6.592;2022-07-23T12:17:34;2.42;;;1.00;;
20482;SDS011;10400;53.198;6.592;2022-07-23T12:20:03;3.58;;;1.38;;
20482;SDS011;10400;53.198;6.592;2022-07-23T12:22:40;2.35;;;1.15;;
20482;SDS011;10400;53.198;6.592;2022-07-23T12:25:12;2.33;;;1.05;;
20482;SDS011;10400;53.198;6.592;2022-07-23T12:27:40;5.97;;;1.20;;
20482;SDS011;10400;53.198;6.592;2022-07-23T12:31:06;3.70;;;1.30;;
20482;SDS011;10400;53.198;6.592;2022-07-23T12:33:09;1.10;;;1.00;;
20482;SDS011;10400;53.198;6.592;2022-07-23T12:35:43;1.45;;;0.82;;
20482;SDS011;10400;53.198;6.592;2022-07-23T12:38:12;4.05;;;1.15;;
20482;SDS011;10400;53.198;6.592;2022-07-23T12:40:44;3.60;;;1.40;;
20482;SDS011;10400;53.198;6.592;2022-07-23T12:53:22;3.28;;;1.02;;
20482;SDS011;10400;53.198;6.592;2022-07-23T12:56:04;3.15;;;1.17;;
20482;SDS011;10400;53.198;6.592;2022-07-23T12:58:42;3.65;;;1.05;;
20482;SDS011;10400;53.198;6.592;2022-07-23T13:01:09;2.65;;;0.85;;
20482;SDS011;10400;53.198;6.592;2022-07-23T13:06:28;3.13;;;1.13;;
20482;SDS011;10400;53.198;6.592;2022-07-23T13:08:54;3.42;;;1.10;;
20482;SDS011;10400;53.198;6.592;2022-07-23T13:11:21;3.17;;;0.80;;
20482;SDS011;10400;53.198;6.592;2022-07-23T13:13:47;1.83;;;1.00;;
20482;SDS011;10400;53.198;6.592;2022-07-23T13:16:12;1.92;;;0.90;;
20482;SDS011;10400;53.198;6.592;2022-07-23T13:18:38;3.38;;;0.90;;
20482;SDS011;10400;53.198;6.592;2022-07-23T13:21:04;2.60;;;0.80;;
20482;SDS011;10400;53.198;6.592;2022-07-23T13:23:29;4.93;;;1.20;;
20482;SDS011;10400;53.198;6.592;2022-07-23T13:25:55;3.28;;;1.00;;
20482;SDS011;10400;53.198;6.592;2022-07-23T13:28:21;3.45;;;0.90;;
20482;SDS011;10400;53.198;6.592;2022-07-23T13:30:49;1.38;;;0.80;;
20482;SDS011;10400;53.198;6.592;2022-07-23T13:33:16;1.65;;;0.90;;
20482;SDS011;10400;53.198;6.592;2022-07-23T13:35:47;3.67;;;0.98;;
20482;SDS011;10400;53.198;6.592;2022-07-23T13:38:14;1.83;;;0.80;;
20482;SDS011;10400;53.198;6.592;2022-07-23T13:40:41;3.85;;;0.90;;
20482;SDS011;10400;53.198;6.592;2022-07-23T13:43:08;3.13;;;0.90;;
20482;SDS011;10400;53.198;6.592;2022-07-23T13:45:35;1.67;;;0.93;;
20482;SDS011;10400;53.198;6.592;2022-07-23T13:48:02;1.73;;;0.73;;
20482;SDS011;10400;53.198;6.592;2022-07-23T13:50:28;2.97;;;1.00;;
20482;SDS011;10400;53.198;6.592;2022-07-23T13:52:54;1.67;;;0.80;;
20482;SDS011;10400;53.198;6.592;2022-07-23T13:55:20;3.60;;;1.00;;
20482;SDS011;10400;53.198;6.592;2022-07-23T13:57:46;4.00;;;1.00;;
20482;SDS011;10400;53.198;6.592;2022-07-23T14:00:12;2.67;;;1.05;;
20482;SDS011;10400;53.198;6.592;2022-07-23T14:02:38;2.45;;;0.90;;
20482;SDS011;10400;53.198;6.592;2022-07-23T14:05:06;1.70;;;0.80;;
20482;SDS011;10400;53.198;6.592;2022-07-23T14:07:33;1.25;;;0.90;;
20482;SDS011;10400;53.198;6.592;2022-07-23T14:09:59;3.53;;;1.10;;
20482;SDS011;10400;53.198;6.592;2022-07-23T14:12:25;1.70;;;1.00;;
20482;SDS011;10400;53.198;6.592;2022-07-23T14:14:51;1.80;;;0.90;;
20482;SDS011;10400;53.198;6.592;2022-07-23T14:17:17;2.63;;;0.80;;
20482;SDS011;10400;53.198;6.592;2022-07-23T14:19:43;1.58;;;1.05;;
20482;SDS011;10400;53.198;6.592;2022-07-23T14:22:08;4.82;;;1.20;;
20482;SDS011;10400;53.198;6.592;2022-07-23T14:24:34;3.08;;;1.30;;
20482;SDS011;10400;53.198;6.592;2022-07-23T14:27:00;2.63;;;1.00;;
20482;SDS011;10400;53.198;6.592;2022-07-23T14:29:27;2.75;;;1.15;;
20482;SDS011;10400;53.198;6.592;2022-07-23T14:31:53;4.65;;;1.02;;
20482;SDS011;10400;53.198;6.592;2022-07-23T14:34:19;1.27;;;1.05;;
20482;SDS011;10400;53.198;6.592;2022-07-23T14:36:44;2.10;;;1.10;;
20482;SDS011;10400;53.198;6.592;2022-07-23T14:39:10;4.32;;;0.95;;
20482;SDS011;10400;53.198;6.592;2022-07-23T14:41:37;1.83;;;0.90;;
20482;SDS011;10400;53.198;6.592;2022-07-23T14:44:03;2.20;;;1.17;;
20482;SDS011;10400;53.198;6.592;2022-07-23T14:46:29;2.25;;;1.05;;
20482;SDS011;10400;53.198;6.592;2022-07-23T14:48:55;3.58;;;1.10;;
20482;SDS011;10400;53.198;6.592;2022-07-23T14:51:20;3.05;;;1.48;;
20482;SDS011;10400;53.198;6.592;2022-07-23T14:53:46;1.83;;;0.98;;
20482;SDS011;10400;53.198;6.592;2022-07-23T14:56:12;3.50;;;1.10;;
20482;SDS011;10400;53.198;6.592;2022-07-23T14:58:39;1.15;;;0.68;;
20482;SDS011;10400;53.198;6.592;2022-07-23T15:01:04;3.72;;;1.20;;
20482;SDS011;10400;53.198;6.592;2022-07-23T15:03:30;6.90;;;1.23;;
20482;SDS011;10400;53.198;6.592;2022-07-23T15:05:56;2.35;;;1.10;;
20482;SDS011;10400;53.198;6.592;2022-07-23T15:08:22;3.42;;;1.30;;
20482;SDS011;10400;53.198;6.592;2022-07-23T15:10:47;4.55;;;1.20;;
20482;SDS011;10400;53.198;6.592;2022-07-23T15:13:13;2.00;;;1.00;;
20482;SDS011;10400;53.198;6.592;2022-07-23T15:15:38;4.93;;;1.00;;
20482;SDS011;10400;53.198;6.592;2022-07-23T15:18:04;1.75;;;0.95;;
20482;SDS011;10400;53.198;6.592;2022-07-23T15:20:30;1.88;;;1.00;;
20482;SDS011;10400;53.198;6.592;2022-07-23T15:22:56;2.22;;;1.17;;
20482;SDS011;10400;53.198;6.592;2022-07-23T15:25:22;3.15;;;1.02;;
20482;SDS011;10400;53.198;6.592;2022-07-23T15:27:49;2.38;;;1.00;;
20482;SDS011;10400;53.198;6.592;2022-07-23T15:30:14;1.58;;;1.20;;
20482;SDS011;10400;53.198;6.592;2022-07-23T15:32:40;1.67;;;1.05;;
20482;SDS011;10400;53.198;6.592;2022-07-23T15:35:06;3.22;;;1.10;;
20482;SDS011;10400;53.198;6.592;2022-07-23T15:37:33;3.47;;;0.90;;
20482;SDS011;10400;53.198;6.592;2022-07-23T15:39:59;4.35;;;1.20;;
20482;SDS011;10400;53.198;6.592;2022-07-23T15:42:25;1.55;;;0.93;;
20482;SDS011;10400;53.198;6.592;2022-07-23T15:44:51;2.33;;;0.80;;
20482;SDS011;10400;53.198;6.592;2022-07-23T15:47:17;2.30;;;1.00;;
20482;SDS011;10400;53.198;6.592;2022-07-23T15:49:43;3.30;;;1.08;;
20482;SDS011;10400;53.198;6.592;2022-07-23T15:52:10;1.55;;;0.98;;
20482;SDS011;10400;53.198;6.592;2022-07-23T15:54:36;3.67;;;1.13;;
20482;SDS011;10400;53.198;6.592;2022-07-23T15:57:02;2.95;;;1.30;;
20482;SDS011;10400;53.198;6.592;2022-07-23T15:59:29;3.70;;;1.20;;
20482;SDS011;10400;53.198;6.592;2022-07-23T16:01:55;3.75;;;2.60;;
20482;SDS011;10400;53.198;6.592;2022-07-23T16:04:22;4.82;;;1.10;;
20482;SDS011;10400;53.198;6.592;2022-07-23T16:06:47;2.25;;;1.00;;